Time;durP1;ratioP1;P1;durP2;ratioP2;P2;SDS_P1;SDS_P2;PMS_P1;PMS_P2;Temp;Humidity;BMP_temperature;BMP_pressure;BME280_temperature;BME280_humidity;BME280_pressure;Samples;Min_cycle;Max_cycle;Signal;HPM_P1;HPM_P2
2024/01/19 00:00:53;;;;;;;9.03;6.30;;;;;;;;;;4938322;29;20771;-83
2024/01/19 00:03:19;;;;;;;10.60;5.87;;;;;;;;;;4929694;29;20452;-82
2024/01/19 00:05:45;;;;;;;7.50;6.10;;;;;;;;;;4908091;29;20850;-81
2024/01/19 00:08:31;;;;;;;9.63;5.33;;;;;;;;;;4936622;29;20413;-83
2024/01/19 00:11:00;;;;;;;6.83;4.97;;;;;;;;;;4952283;29;20425;-82
2024/01/19 00:13:26;;;;;;;6.23;5.70;;;;;;;;;;4936714;29;20826;-81
2024/01/19 00:15:53;;;;;;;6.60;5.70;;;;;;;;;;4937860;29;20441;-80
2024/01/19 00:18:19;;;;;;;8.13;5.50;;;;;;;;;;4937901;29;20476;-81
2024/01/19 00:20:45;;;;;;;9.60;4.93;;;;;;;;;;4937826;29;20476;-81
2024/01/19 00:23:10;;;;;;;6.50;4.50;;;;;;;;;;4937866;29;20421;-81
2024/01/19 00:25:38;;;;;;;4.17;3.77;;;;;;;;;;4937439;29;20895;-81
2024/01/19 00:28:04;;;;;;;5.07;3.80;;;;;;;;;;4937610;29;20526;-83
2024/01/19 00:30:30;;;;;;;4.17;3.77;;;;;;;;;;4937577;29;20416;-81
2024/01/19 00:32:57;;;;;;;9.60;4.47;;;;;;;;;;4936688;29;20512;-81
2024/01/19 00:35:23;;;;;;;15.17;4.40;;;;;;;;;;4937594;29;20449;-82
2024/01/19 00:37:49;;;;;;;5.23;3.50;;;;;;;;;;4937536;29;20485;-82
2024/01/19 00:40:15;;;;;;;3.60;3.30;;;;;;;;;;4935294;29;20503;-81
2024/01/19 00:42:42;;;;;;;4.40;3.77;;;;;;;;;;4936232;29;20429;-81
2024/01/19 00:45:08;;;;;;;5.83;3.10;;;;;;;;;;4937310;29;20417;-83
2024/01/19 00:47:35;;;;;;;5.17;3.40;;;;;;;;;;4937337;29;20414;-82
2024/01/19 00:50:01;;;;;;;7.50;3.27;;;;;;;;;;4937098;29;20779;-81
2024/01/19 00:52:27;;;;;;;4.57;3.30;;;;;;;;;;4937355;29;20836;-81
2024/01/19 00:54:53;;;;;;;2.90;2.70;;;;;;;;;;4936843;29;20442;-79
2024/01/19 00:57:19;;;;;;;4.47;2.60;;;;;;;;;;4937017;29;20524;-79
2024/01/19 00:59:45;;;;;;;4.73;2.23;;;;;;;;;;4937252;29;20421;-80
2024/01/19 01:02:10;;;;;;;4.80;1.80;;;;;;;;;;4937082;29;20425;-79
2024/01/19 01:04:36;;;;;;;3.10;2.57;;;;;;;;;;4937139;29;20443;-80
2024/01/19 01:07:02;;;;;;;5.27;1.90;;;;;;;;;;4935825;29;20522;-80
2024/01/19 01:09:28;;;;;;;4.00;2.23;;;;;;;;;;4937072;29;20790;-79
2024/01/19 01:11:54;;;;;;;3.83;2.10;;;;;;;;;;4934568;29;20435;-79
2024/01/19 01:14:20;;;;;;;3.77;2.10;;;;;;;;;;4935508;29;20418;-80
2024/01/19 01:16:46;;;;;;;4.77;2.77;;;;;;;;;;4936726;29;20823;-80
2024/01/19 01:19:12;;;;;;;6.03;2.40;;;;;;;;;;4936806;29;20453;-80
2024/01/19 01:21:38;;;;;;;4.37;3.07;;;;;;;;;;4936862;29;20462;-80
2024/01/19 01:24:04;;;;;;;5.87;2.90;;;;;;;;;;4902488;28;20429;-80
2024/01/19 01:26:30;;;;;;;6.53;4.30;;;;;;;;;;4955333;28;20424;-80
2024/01/19 01:28:56;;;;;;;7.47;3.13;;;;;;;;;;4955809;28;20452;-80
2024/01/19 01:31:22;;;;;;;7.40;2.67;;;;;;;;;;4955819;28;20432;-80
2024/01/19 01:33:48;;;;;;;5.33;3.73;;;;;;;;;;4955809;28;20447;-80
2024/01/19 01:36:14;;;;;;;10.47;4.40;;;;;;;;;;4955537;29;20463;-80
2024/01/19 01:38:40;;;;;;;3.23;2.93;;;;;;;;;;4955653;28;20477;-81
2024/01/19 01:41:06;;;;;;;3.10;2.27;;;;;;;;;;4955375;28;20423;-81
2024/01/19 01:43:32;;;;;;;2.90;2.63;;;;;;;;;;4955393;28;20512;-80
2024/01/19 01:45:57;;;;;;;3.83;2.03;;;;;;;;;;4955527;28;20874;-80
2024/01/19 01:48:24;;;;;;;8.20;3.17;;;;;;;;;;4954289;29;20457;-80
2024/01/19 01:50:50;;;;;;;8.80;2.90;;;;;;;;;;4955598;28;20423;-80
2024/01/19 01:53:23;;;;;;;4.40;2.60;;;;;;;;;;4955510;28;20420;-80
2024/01/19 01:55:49;;;;;;;4.20;2.53;;;;;;;;;;4955061;28;20847;-80
2024/01/19 01:58:15;;;;;;;3.23;1.93;;;;;;;;;;4955291;28;20562;-81
2024/01/19 02:00:45;;;;;;;3.77;1.80;;;;;;;;;;4954104;29;20428;-80
2024/01/19 02:03:11;;;;;;;2.90;1.83;;;;;;;;;;4955298;28;20897;-80
2024/01/19 02:05:37;;;;;;;3.73;1.40;;;;;;;;;;4955229;28;20423;-81
2024/01/19 02:08:03;;;;;;;3.33;1.93;;;;;;;;;;4955076;28;20803;-80
2024/01/19 02:10:32;;;;;;;2.40;1.93;;;;;;;;;;4954876;28;20420;-80
2024/01/19 02:13:01;;;;;;;2.17;1.57;;;;;;;;;;4955167;28;20418;-79
2024/01/19 02:15:27;;;;;;;5.07;2.17;;;;;;;;;;4955098;28;20749;-80
2024/01/19 02:17:54;;;;;;;4.00;1.83;;;;;;;;;;4954945;28;20924;-79
2024/01/19 02:20:20;;;;;;;2.00;1.13;;;;;;;;;;4942955;28;20430;-80
2024/01/19 02:22:47;;;;;;;2.70;1.60;;;;;;;;;;4935791;29;20418;-80
2024/01/19 02:25:13;;;;;;;2.50;1.53;;;;;;;;;;4935565;29;20414;-80
2024/01/19 02:27:39;;;;;;;4.07;2.17;;;;;;;;;;4934516;29;20426;-80
2024/01/19 02:30:12;;;;;;;4.57;1.60;;;;;;;;;;4935729;29;20429;-81
2024/01/19 02:32:38;;;;;;;7.17;2.10;;;;;;;;;;4935773;29;20418;-80
2024/01/19 02:35:04;;;;;;;8.70;1.50;;;;;;;;;;4935744;29;20428;-80
2024/01/19 02:37:30;;;;;;;4.60;1.50;;;;;;;;;;4935547;29;20524;-80
2024/01/19 02:39:56;;;;;;;3.70;1.33;;;;;;;;;;4935276;29;20497;-80
2024/01/19 02:42:22;;;;;;;2.77;1.40;;;;;;;;;;4935750;29;20472;-80
2024/01/19 02:44:48;;;;;;;2.43;1.70;;;;;;;;;;4935688;29;20399;-80
2024/01/19 02:47:13;;;;;;;3.10;1.27;;;;;;;;;;4935658;29;20754;-80
2024/01/19 02:49:39;;;;;;;2.87;0.90;;;;;;;;;;4935558;29;20473;-80
2024/01/19 02:52:05;;;;;;;2.90;1.27;;;;;;;;;;4935339;29;20492;-81
2024/01/19 02:54:31;;;;;;;3.60;2.00;;;;;;;;;;4935227;29;20416;-81
2024/01/19 02:56:57;;;;;;;2.10;1.23;;;;;;;;;;4936879;29;20496;-81
2024/01/19 02:59:23;;;;;;;4.27;0.90;;;;;;;;;;4939529;29;20405;-80
2024/01/19 03:01:49;;;;;;;3.57;0.90;;;;;;;;;;4939412;29;20773;-81
2024/01/19 03:04:15;;;;;;;5.60;1.70;;;;;;;;;;4939127;29;20409;-81
2024/01/19 03:06:41;;;;;;;4.30;1.63;;;;;;;;;;4939347;29;20520;-80
2024/01/19 03:09:07;;;;;;;2.63;1.40;;;;;;;;;;4939411;29;20433;-80
2024/01/19 03:11:33;;;;;;;4.93;0.93;;;;;;;;;;4938881;29;20414;-80
2024/01/19 03:14:01;;;;;;;2.20;1.50;;;;;;;;;;4938965;29;20906;-80
2024/01/19 03:16:27;;;;;;;2.10;0.90;;;;;;;;;;4939147;29;20803;-81
2024/01/19 03:18:55;;;;;;;3.50;1.33;;;;;;;;;;4938933;29;20509;-80
2024/01/19 03:21:21;;;;;;;2.30;0.83;;;;;;;;;;4938830;29;20504;-80
2024/01/19 03:23:47;;;;;;;1.60;0.90;;;;;;;;;;4939009;29;20427;-81
2024/01/19 03:26:14;;;;;;;3.40;1.40;;;;;;;;;;4899268;29;20441;-80
2024/01/19 03:28:40;;;;;;;4.67;1.13;;;;;;;;;;4938919;29;20428;-80
2024/01/19 03:31:06;;;;;;;3.53;1.13;;;;;;;;;;4937143;29;20423;-80
2024/01/19 03:33:31;;;;;;;3.40;1.37;;;;;;;;;;4938847;29;20930;-79
2024/01/19 03:35:57;;;;;;;7.40;1.20;;;;;;;;;;4936865;29;20469;-80
2024/01/19 03:38:23;;;;;;;3.83;1.20;;;;;;;;;;4935625;29;20513;-81
2024/01/19 03:40:49;;;;;;;1.70;0.70;;;;;;;;;;4928066;29;20937;-80
2024/01/19 03:43:15;;;;;;;2.80;0.80;;;;;;;;;;4928893;29;20446;-80
2024/01/19 03:45:41;;;;;;;6.13;1.97;;;;;;;;;;4927796;29;20912;-80
2024/01/19 03:48:09;;;;;;;6.47;2.40;;;;;;;;;;4928371;29;20444;-80
2024/01/19 03:50:35;;;;;;;2.27;1.37;;;;;;;;;;4928706;29;20415;-81
2024/01/19 03:53:01;;;;;;;5.93;1.20;;;;;;;;;;4929586;29;20430;-81
2024/01/19 03:55:27;;;;;;;3.60;1.27;;;;;;;;;;4925890;29;20908;-80
2024/01/19 03:57:53;;;;;;;3.30;0.83;;;;;;;;;;4928685;29;20461;-81
2024/01/19 04:00:19;;;;;;;2.10;0.87;;;;;;;;;;4927765;29;20416;-81
2024/01/19 04:02:45;;;;;;;3.10;0.77;;;;;;;;;;4927373;29;20761;-81
2024/01/19 04:05:11;;;;;;;4.43;1.23;;;;;;;;;;4928917;29;20421;-80
2024/01/19 04:07:37;;;;;;;3.23;0.77;;;;;;;;;;4926578;29;20426;-81
2024/01/19 04:10:03;;;;;;;2.60;0.67;;;;;;;;;;4928910;29;20432;-81
2024/01/19 04:12:29;;;;;;;3.73;0.80;;;;;;;;;;4927631;29;20430;-80
2024/01/19 04:14:55;;;;;;;1.87;0.63;;;;;;;;;;4928061;29;20594;-81
2024/01/19 04:17:21;;;;;;;1.40;0.90;;;;;;;;;;4927699;29;20469;-81
2024/01/19 04:19:47;;;;;;;4.13;0.77;;;;;;;;;;4927196;29;20449;-81
2024/01/19 04:22:13;;;;;;;2.70;1.00;;;;;;;;;;4928282;29;20776;-81
2024/01/19 04:24:39;;;;;;;2.63;0.87;;;;;;;;;;4928294;29;20419;-81
2024/01/19 04:27:05;;;;;;;2.40;0.87;;;;;;;;;;4926940;29;20411;-80
2024/01/19 04:29:31;;;;;;;1.07;0.40;;;;;;;;;;4928423;29;20795;-80
2024/01/19 04:31:57;;;;;;;3.03;0.93;;;;;;;;;;4926917;29;20420;-80
2024/01/19 04:34:23;;;;;;;1.37;0.80;;;;;;;;;;4926832;29;20431;-80
2024/01/19 04:36:52;;;;;;;0.87;0.40;;;;;;;;;;4928379;29;20959;-80
2024/01/19 04:39:20;;;;;;;1.47;0.90;;;;;;;;;;4927578;29;20799;-80
2024/01/19 04:41:46;;;;;;;4.73;0.77;;;;;;;;;;4926588;29;20506;-80
2024/01/19 04:44:12;;;;;;;1.90;0.83;;;;;;;;;;4927974;29;21007;-80
2024/01/19 04:46:38;;;;;;;3.03;1.60;;;;;;;;;;4927992;29;20414;-80
2024/01/19 04:49:04;;;;;;;1.80;1.07;;;;;;;;;;4926547;29;20414;-80
2024/01/19 04:51:30;;;;;;;3.23;1.43;;;;;;;;;;4928224;29;20944;-81
2024/01/19 04:53:58;;;;;;;2.10;1.80;;;;;;;;;;4927680;29;20415;-81
2024/01/19 04:56:24;;;;;;;2.27;0.70;;;;;;;;;;4926137;29;20410;-81
2024/01/19 04:58:50;;;;;;;1.57;1.47;;;;;;;;;;4927982;29;20465;-80
2024/01/19 05:01:17;;;;;;;1.80;1.13;;;;;;;;;;4927269;29;20420;-80
2024/01/19 05:03:43;;;;;;;4.60;1.10;;;;;;;;;;4926106;29;20569;-80
2024/01/19 05:06:09;;;;;;;3.20;1.40;;;;;;;;;;4928199;29;20521;-80
2024/01/19 05:08:35;;;;;;;4.43;1.63;;;;;;;;;;4927186;29;20849;-80
2024/01/19 05:11:01;;;;;;;9.07;1.40;;;;;;;;;;4926137;29;20460;-80
2024/01/19 05:13:26;;;;;;;3.47;1.07;;;;;;;;;;4928049;29;20442;-81
2024/01/19 05:15:52;;;;;;;3.50;1.17;;;;;;;;;;4926803;29;20423;-81
2024/01/19 05:18:18;;;;;;;11.57;2.10;;;;;;;;;;4926240;29;20808;-81
2024/01/19 05:20:44;;;;;;;2.30;1.23;;;;;;;;;;4891380;29;20441;-81
2024/01/19 05:23:10;;;;;;;3.50;0.93;;;;;;;;;;4924412;29;20476;-80
2024/01/19 05:25:36;;;;;;;3.60;1.40;;;;;;;;;;4926612;29;20514;-80
2024/01/19 05:28:02;;;;;;;1.70;1.13;;;;;;;;;;4926063;29;20414;-80
2024/01/19 05:30:28;;;;;;;1.00;0.73;;;;;;;;;;4927727;29;20417;-80
2024/01/19 05:32:54;;;;;;;3.47;2.10;;;;;;;;;;4926605;29;20934;-80
2024/01/19 05:35:20;;;;;;;5.23;1.77;;;;;;;;;;4925748;29;20443;-81
2024/01/19 05:37:46;;;;;;;1.83;0.70;;;;;;;;;;4927133;29;20541;-81
2024/01/19 05:40:12;;;;;;;4.33;1.33;;;;;;;;;;4925570;29;20537;-79
2024/01/19 05:42:38;;;;;;;5.63;1.23;;;;;;;;;;4930989;29;20428;-79
2024/01/19 05:45:04;;;;;;;3.37;1.03;;;;;;;;;;4927467;29;20406;-81
2024/01/19 05:47:30;;;;;;;4.27;1.10;;;;;;;;;;4925868;29;20433;-80
2024/01/19 05:49:56;;;;;;;2.80;1.27;;;;;;;;;;4926417;29;20422;-80
2024/01/19 05:52:22;;;;;;;4.00;1.03;;;;;;;;;;4927391;29;20420;-81
2024/01/19 05:54:48;;;;;;;3.37;1.23;;;;;;;;;;4927695;29;20416;-81
2024/01/19 05:57:14;;;;;;;2.87;1.10;;;;;;;;;;4925961;29;20458;-82
2024/01/19 05:59:40;;;;;;;2.30;0.67;;;;;;;;;;4926870;29;20920;-81
2024/01/19 06:02:06;;;;;;;3.30;0.93;;;;;;;;;;4925212;29;20412;-80
2024/01/19 06:04:33;;;;;;;4.97;1.90;;;;;;;;;;4926537;29;20966;-81
2024/01/19 06:06:59;;;;;;;4.90;1.10;;;;;;;;;;4926616;29;20747;-81
2024/01/19 06:09:25;;;;;;;2.73;1.17;;;;;;;;;;4924657;29;20477;-81
2024/01/19 06:11:52;;;;;;;1.90;0.60;;;;;;;;;;4926622;29;20410;-80
2024/01/19 06:14:18;;;;;;;2.07;1.03;;;;;;;;;;4926238;29;20446;-80
2024/01/19 06:16:44;;;;;;;2.20;0.43;;;;;;;;;;4925023;29;20473;-79
2024/01/19 06:19:10;;;;;;;3.83;0.97;;;;;;;;;;4926859;29;20428;-80
2024/01/19 06:21:36;;;;;;;1.80;0.63;;;;;;;;;;4885976;29;20459;-80
2024/01/19 06:24:02;;;;;;;1.80;0.77;;;;;;;;;;4924433;29;20437;-82
2024/01/19 06:26:32;;;;;;;1.43;0.50;;;;;;;;;;4926341;29;20914;-80
2024/01/19 06:28:59;;;;;;;3.07;0.90;;;;;;;;;;4926449;29;20412;-80
2024/01/19 06:31:25;;;;;;;2.70;0.83;;;;;;;;;;4924127;29;20425;-82
2024/01/19 06:33:51;;;;;;;2.13;0.57;;;;;;;;;;4925405;29;20409;-82
2024/01/19 06:36:17;;;;;;;1.40;0.50;;;;;;;;;;4925776;29;20468;-81
2024/01/19 06:38:42;;;;;;;1.90;0.80;;;;;;;;;;4924919;29;20478;-82
2024/01/19 06:41:08;;;;;;;2.17;0.70;;;;;;;;;;4926558;29;20442;-82
2024/01/19 06:43:34;;;;;;;2.10;0.53;;;;;;;;;;4925605;29;20426;-82
2024/01/19 06:46:00;;;;;;;3.57;0.63;;;;;;;;;;4925209;29;20413;-82
2024/01/19 06:48:26;;;;;;;1.63;0.50;;;;;;;;;;4926759;29;20784;-81
2024/01/19 06:50:52;;;;;;;4.23;1.20;;;;;;;;;;4939968;29;20422;-81
2024/01/19 06:53:18;;;;;;;4.83;0.60;;;;;;;;;;4925316;29;20433;-81
2024/01/19 06:55:44;;;;;;;3.63;0.80;;;;;;;;;;4926371;29;20504;-81
2024/01/19 06:58:10;;;;;;;0.67;0.57;;;;;;;;;;4924812;29;20475;-80
2024/01/19 07:00:36;;;;;;;1.77;0.50;;;;;;;;;;4925571;29;20410;-82
2024/01/19 07:03:02;;;;;;;3.00;0.60;;;;;;;;;;4941263;29;20449;-81
2024/01/19 07:08:33;;;;;;;2.97;0.70;;;;;;;;;;4924622;29;20418;-82
2024/01/19 07:10:59;;;;;;;2.30;0.70;;;;;;;;;;4923892;29;20398;-82
2024/01/19 07:13:25;;;;;;;4.80;0.57;;;;;;;;;;4926573;29;20416;-81
2024/01/19 07:15:56;;;;;;;2.63;1.23;;;;;;;;;;4924938;29;20437;-82
2024/01/19 07:18:23;;;;;;;4.53;0.60;;;;;;;;;;4923713;29;20535;-82
2024/01/19 07:21:13;;;;;;;2.70;0.73;;;;;;;;;;4926683;29;20419;-82
2024/01/19 07:23:47;;;;;;;6.03;0.97;;;;;;;;;;4925914;29;20418;-83
2024/01/19 07:26:22;;;;;;;5.57;1.60;;;;;;;;;;4923968;29;20408;-82
2024/01/19 07:28:50;;;;;;;5.80;1.17;;;;;;;;;;4926265;29;20401;-82
2024/01/19 07:31:21;;;;;;;4.30;1.20;;;;;;;;;;4925429;29;20426;-83
2024/01/19 07:40:08;;;;;;;1.60;0.47;;;;;;;;;;4926125;29;20836;-83
2024/01/19 07:42:34;;;;;;;4.78;1.50;;;;;;;;;;4928114;29;20841;-82
2024/01/19 07:45:00;;;;;;;3.30;1.37;;;;;;;;;;4928396;29;20179;-81
2024/01/19 07:47:35;;;;;;;5.33;1.27;;;;;;;;;;4929347;29;20502;-83
2024/01/19 07:50:10;;;;;;;3.33;1.10;;;;;;;;;;4930286;29;20717;-82
2024/01/19 07:52:36;;;;;;;5.50;1.23;;;;;;;;;;4928423;29;20513;-82
2024/01/19 07:55:02;;;;;;;3.23;1.10;;;;;;;;;;4927454;29;20509;-81
2024/01/19 07:57:28;;;;;;;2.83;1.43;;;;;;;;;;4929119;29;20456;-81
2024/01/19 07:59:54;;;;;;;5.57;1.47;;;;;;;;;;4928209;29;20739;-82
2024/01/19 08:02:21;;;;;;;4.63;1.23;;;;;;;;;;4927907;29;20486;-80
2024/01/19 08:04:47;;;;;;;3.50;1.60;;;;;;;;;;4929314;29;20786;-81
2024/01/19 08:07:13;;;;;;;4.60;1.53;;;;;;;;;;4927959;29;20422;-80
2024/01/19 08:09:42;;;;;;;4.57;1.50;;;;;;;;;;4922576;29;20418;-81
2024/01/19 08:12:08;;;;;;;4.60;1.43;;;;;;;;;;4919066;29;20485;-79
2024/01/19 08:14:33;;;;;;;3.80;1.40;;;;;;;;;;4919272;29;20412;-80
2024/01/19 08:16:59;;;;;;;4.33;1.47;;;;;;;;;;4919056;29;20834;-79
2024/01/19 08:19:25;;;;;;;5.17;1.27;;;;;;;;;;4919173;29;20483;-83
2024/01/19 08:21:51;;;;;;;4.00;1.13;;;;;;;;;;4933210;29;20486;-83
2024/01/19 08:24:17;;;;;;;3.57;1.13;;;;;;;;;;4931074;29;20435;-80
2024/01/19 08:26:43;;;;;;;5.03;1.43;;;;;;;;;;4928486;29;20419;-81
2024/01/19 08:29:09;;;;;;;5.10;1.40;;;;;;;;;;4922722;29;20422;-80
2024/01/19 08:31:35;;;;;;;11.17;1.70;;;;;;;;;;4926491;29;20759;-79
2024/01/19 08:34:01;;;;;;;5.60;1.53;;;;;;;;;;4935602;29;20427;-80
2024/01/19 08:36:26;;;;;;;5.00;1.00;;;;;;;;;;4937683;29;20521;-83
2024/01/19 08:38:53;;;;;;;11.63;1.90;;;;;;;;;;4937388;29;20484;-83
2024/01/19 08:41:19;;;;;;;4.33;1.87;;;;;;;;;;4929848;29;20428;-83
2024/01/19 08:43:45;;;;;;;4.77;0.97;;;;;;;;;;4927730;29;20432;-79
2024/01/19 08:46:11;;;;;;;7.33;2.10;;;;;;;;;;4928412;29;20415;-80
2024/01/19 08:48:36;;;;;;;6.20;1.63;;;;;;;;;;4926492;29;20429;-81
2024/01/19 08:51:02;;;;;;;7.40;1.20;;;;;;;;;;4927943;29;20979;-81
2024/01/19 08:53:28;;;;;;;3.43;1.17;;;;;;;;;;4926772;29;20506;-82
2024/01/19 08:55:54;;;;;;;4.33;0.90;;;;;;;;;;4926484;29;20937;-80
2024/01/19 08:58:21;;;;;;;4.57;1.03;;;;;;;;;;4927970;29;20486;-82
2024/01/19 09:00:47;;;;;;;3.50;0.77;;;;;;;;;;4927747;29;20415;-80
2024/01/19 09:03:12;;;;;;;6.40;1.00;;;;;;;;;;4926335;29;20915;-81
2024/01/19 09:05:38;;;;;;;3.57;0.73;;;;;;;;;;4926939;29;20915;-82
2024/01/19 09:08:04;;;;;;;3.93;0.40;;;;;;;;;;4927021;29;20428;-83
2024/01/19 09:10:30;;;;;;;4.73;0.47;;;;;;;;;;4931375;29;20477;-83
2024/01/19 09:12:56;;;;;;;6.07;0.70;;;;;;;;;;4934285;29;20424;-84
2024/01/19 09:15:22;;;;;;;1.00;0.20;;;;;;;;;;4933328;29;20427;-82
2024/01/19 09:17:48;;;;;;;3.37;0.73;;;;;;;;;;4934626;29;20486;-83
2024/01/19 09:20:14;;;;;;;5.80;1.13;;;;;;;;;;4934439;29;20419;-83
2024/01/19 09:22:40;;;;;;;6.30;0.60;;;;;;;;;;4921004;29;20183;-82
2024/01/19 09:25:06;;;;;;;5.23;0.40;;;;;;;;;;4918270;29;20410;-82
2024/01/19 09:27:33;;;;;;;2.57;0.93;;;;;;;;;;4917280;29;20512;-82
2024/01/19 09:29:58;;;;;;;2.83;0.40;;;;;;;;;;4929488;29;20511;-82
2024/01/19 09:32:24;;;;;;;5.80;1.03;;;;;;;;;;4926682;29;20964;-83
2024/01/19 09:34:51;;;;;;;7.17;0.90;;;;;;;;;;4925937;29;20184;-82
2024/01/19 09:37:16;;;;;;;4.03;1.13;;;;;;;;;;4926123;29;21021;-82
2024/01/19 09:39:42;;;;;;;4.57;0.67;;;;;;;;;;4927340;29;20417;-83
2024/01/19 09:42:13;;;;;;;3.77;0.67;;;;;;;;;;4936422;29;20424;-82
2024/01/19 09:44:45;;;;;;;5.83;1.03;;;;;;;;;;4935870;29;20475;-83
2024/01/19 09:47:21;;;;;;;6.80;1.00;;;;;;;;;;4936402;29;20459;-83
2024/01/19 09:49:47;;;;;;;6.00;0.50;;;;;;;;;;4936276;29;20423;-82
2024/01/19 09:52:24;;;;;;;4.90;1.40;;;;;;;;;;4936147;29;20425;-82
2024/01/19 09:54:50;;;;;;;4.30;1.00;;;;;;;;;;4935994;29;20175;-82
2024/01/19 09:57:16;;;;;;;16.10;2.83;;;;;;;;;;4924813;29;20472;-82
2024/01/19 09:59:43;;;;;;;5.00;1.00;;;;;;;;;;4908827;29;20490;-83
2024/01/19 10:02:10;;;;;;;1.60;0.50;;;;;;;;;;4936404;29;20413;-82
2024/01/19 10:04:36;;;;;;;6.60;0.60;;;;;;;;;;4936127;29;20538;-82
2024/01/19 10:07:03;;;;;;;2.60;1.50;;;;;;;;;;4936095;28;20524;-83
2024/01/19 10:09:29;;;;;;;2.10;0.70;;;;;;;;;;4935699;28;20777;-82
2024/01/19 10:11:55;;;;;;;4.10;0.77;;;;;;;;;;4950857;28;20508;-82
2024/01/19 10:14:23;;;;;;;4.00;0.60;;;;;;;;;;4933334;29;20534;-82
2024/01/19 10:16:49;;;;;;;3.40;0.40;;;;;;;;;;4927190;29;20435;-82
2024/01/19 10:19:16;;;;;;;7.30;0.50;;;;;;;;;;4928671;29;20498;-82
2024/01/19 10:21:42;;;;;;;5.93;0.53;;;;;;;;;;4926796;29;20462;-80
2024/01/19 10:24:11;;;;;;;7.23;1.20;;;;;;;;;;4928345;29;20445;-80
2024/01/19 10:26:37;;;;;;;2.97;0.70;;;;;;;;;;4926350;29;20418;-81
2024/01/19 10:29:16;;;;;;;3.77;0.57;;;;;;;;;;4926457;29;20433;-86
2024/01/19 10:31:43;;;;;;;7.20;0.87;;;;;;;;;;4923196;29;20435;-81
2024/01/19 10:34:19;;;;;;;9.23;0.97;;;;;;;;;;4924679;29;20419;-81
2024/01/19 10:36:45;;;;;;;4.10;0.97;;;;;;;;;;4926171;29;20475;-82
2024/01/19 10:39:25;;;;;;;7.50;1.50;;;;;;;;;;4939625;29;20525;-81
2024/01/19 10:41:52;;;;;;;2.60;0.67;;;;;;;;;;4929380;29;20471;-82
2024/01/19 10:44:22;;;;;;;3.83;0.90;;;;;;;;;;4932052;29;20424;-83
2024/01/19 10:46:53;;;;;;;4.00;0.53;;;;;;;;;;4940139;29;20450;-82
2024/01/19 10:49:19;;;;;;;3.77;0.93;;;;;;;;;;4926145;29;20886;-83
2024/01/19 10:51:45;;;;;;;8.70;1.70;;;;;;;;;;4924185;29;20429;-83
2024/01/19 10:54:17;;;;;;;7.60;1.03;;;;;;;;;;4925267;29;20829;-83
2024/01/19 10:56:46;;;;;;;4.90;0.57;;;;;;;;;;4926218;29;20431;-82
2024/01/19 10:59:15;;;;;;;4.50;0.53;;;;;;;;;;4887907;28;21145;-83
2024/01/19 11:01:42;;;;;;;7.93;1.33;;;;;;;;;;4923956;29;20421;-86
2024/01/19 11:04:08;;;;;;;6.60;1.00;;;;;;;;;;4933321;29;20431;-85
2024/01/19 11:06:38;;;;;;;4.97;0.83;;;;;;;;;;4925059;29;20482;-82
2024/01/19 11:09:08;;;;;;;7.50;1.17;;;;;;;;;;4925397;29;20427;-83
2024/01/19 11:11:39;;;;;;;6.43;0.70;;;;;;;;;;4922300;29;20793;-86
2024/01/19 11:14:07;;;;;;;7.80;1.50;;;;;;;;;;4915558;29;20433;-84
2024/01/19 11:16:38;;;;;;;6.63;0.63;;;;;;;;;;4916885;29;20427;-81
2024/01/19 11:19:05;;;;;;;5.47;0.90;;;;;;;;;;4920149;29;20507;-81
2024/01/19 11:21:31;;;;;;;4.00;1.20;;;;;;;;;;4928743;29;20885;-82
2024/01/19 11:23:57;;;;;;;6.57;0.80;;;;;;;;;;4927999;29;20452;-86
2024/01/19 11:26:34;;;;;;;4.17;0.50;;;;;;;;;;4930845;29;20775;-83
2024/01/19 11:29:01;;;;;;;5.93;0.47;;;;;;;;;;4930871;29;20415;-84
2024/01/19 11:31:32;;;;;;;4.20;0.67;;;;;;;;;;4926120;29;20420;-84
2024/01/19 11:33:58;;;;;;;4.60;0.87;;;;;;;;;;4925140;29;20514;-87
2024/01/19 11:36:39;;;;;;;1.60;0.40;;;;;;;;;;4923657;29;20545;-86
2024/01/19 11:39:05;;;;;;;7.40;1.23;;;;;;;;;;4943924;28;20505;-89
2024/01/19 11:41:35;;;;;;;5.00;0.47;;;;;;;;;;4933493;29;20776;-87
2024/01/19 11:44:03;;;;;;;4.03;0.73;;;;;;;;;;4927062;29;20426;-81
2024/01/19 11:46:45;;;;;;;3.13;0.53;;;;;;;;;;4925200;29;20432;-84
2024/01/19 11:49:30;;;;;;;3.70;0.30;;;;;;;;;;4929945;29;20424;-84
2024/01/19 11:51:56;;;;;;;4.07;0.90;;;;;;;;;;4928492;29;20799;-84
2024/01/19 11:54:32;;;;;;;3.80;0.83;;;;;;;;;;4926456;29;20421;-85
2024/01/19 11:57:16;;;;;;;8.23;1.00;;;;;;;;;;4927614;29;20974;-84
2024/01/19 11:59:45;;;;;;;5.40;1.27;;;;;;;;;;4886976;28;20446;-88
2024/01/19 12:02:21;;;;;;;3.60;0.90;;;;;;;;;;4932389;29;20902;-87
2024/01/19 12:04:50;;;;;;;6.07;3.37;;;;;;;;;;4927444;29;20438;-84
2024/01/19 12:07:17;;;;;;;6.40;1.83;;;;;;;;;;4926733;29;20421;-86
2024/01/19 12:09:43;;;;;;;7.73;1.23;;;;;;;;;;4928658;29;20421;-87
2024/01/19 12:12:09;;;;;;;3.73;1.43;;;;;;;;;;4927853;29;20421;-83
2024/01/19 12:14:35;;;;;;;2.90;1.17;;;;;;;;;;4930442;29;20430;-87
2024/01/19 12:17:01;;;;;;;3.90;0.80;;;;;;;;;;4926811;29;20436;-79
2024/01/19 12:19:27;;;;;;;6.90;1.80;;;;;;;;;;4928477;29;20425;-80
2024/01/19 12:21:56;;;;;;;5.80;1.20;;;;;;;;;;4927713;29;20490;-83
2024/01/19 12:24:22;;;;;;;5.90;1.40;;;;;;;;;;4925902;29;20430;-80
2024/01/19 12:26:52;;;;;;;5.43;0.90;;;;;;;;;;4928418;29;20482;-81
2024/01/19 12:29:36;;;;;;;5.03;0.80;;;;;;;;;;4926947;29;20426;-81
2024/01/19 12:32:08;;;;;;;4.67;1.47;;;;;;;;;;4928209;29;20420;-80
2024/01/19 12:34:34;;;;;;;2.57;0.90;;;;;;;;;;4927760;29;20790;-81
2024/01/19 12:37:00;;;;;;;8.47;1.40;;;;;;;;;;4927769;29;20463;-80
2024/01/19 12:39:27;;;;;;;3.07;1.27;;;;;;;;;;4936885;29;20421;-81
2024/01/19 12:42:02;;;;;;;5.17;1.17;;;;;;;;;;4937056;29;20427;-79
2024/01/19 12:44:28;;;;;;;4.80;1.23;;;;;;;;;;4918236;29;20786;-80
2024/01/19 12:46:58;;;;;;;3.13;0.70;;;;;;;;;;4923320;29;20410;-81
2024/01/19 12:49:24;;;;;;;4.00;1.13;;;;;;;;;;4925650;29;20750;-80
2024/01/19 12:51:49;;;;;;;2.73;0.73;;;;;;;;;;4927710;29;20420;-80
2024/01/19 12:54:17;;;;;;;5.00;1.07;;;;;;;;;;4925624;29;20420;-80
2024/01/19 12:56:44;;;;;;;2.70;1.00;;;;;;;;;;4926325;29;20424;-81
2024/01/19 12:59:15;;;;;;;6.67;0.97;;;;;;;;;;4927405;29;20471;-80
2024/01/19 13:01:42;;;;;;;5.47;0.73;;;;;;;;;;4890864;29;20448;-81
2024/01/19 13:04:08;;;;;;;4.90;1.40;;;;;;;;;;4927337;29;20429;-80
2024/01/19 13:06:40;;;;;;;4.10;0.87;;;;;;;;;;4928147;29;20424;-80
2024/01/19 13:09:06;;;;;;;3.30;0.60;;;;;;;;;;4926821;29;20955;-80
2024/01/19 13:11:32;;;;;;;1.53;0.70;;;;;;;;;;4926333;29;20416;-80
2024/01/19 13:14:02;;;;;;;5.30;0.73;;;;;;;;;;4927891;29;20418;-80
2024/01/19 13:16:28;;;;;;;2.57;0.70;;;;;;;;;;4927075;29;20422;-79
2024/01/19 13:19:01;;;;;;;5.17;0.77;;;;;;;;;;4928601;29;20478;-79
2024/01/19 13:21:27;;;;;;;2.60;0.73;;;;;;;;;;4936313;29;20422;-79
2024/01/19 13:23:53;;;;;;;4.53;1.00;;;;;;;;;;4948275;29;20430;-79
2024/01/19 13:26:19;;;;;;;3.00;0.50;;;;;;;;;;4954561;29;20777;-79
2024/01/19 13:28:46;;;;;;;5.00;1.50;;;;;;;;;;4955115;28;20409;-80
2024/01/19 13:31:14;;;;;;;3.43;0.53;;;;;;;;;;4955816;28;20444;-80
2024/01/19 13:33:42;;;;;;;3.80;1.57;;;;;;;;;;4955813;28;20424;-80
2024/01/19 13:36:08;;;;;;;6.40;1.37;;;;;;;;;;4943759;28;20837;-80
2024/01/19 13:38:34;;;;;;;3.43;0.80;;;;;;;;;;4936114;29;20509;-80
2024/01/19 13:41:00;;;;;;;6.10;1.60;;;;;;;;;;4936145;29;20421;-80
2024/01/19 13:43:26;;;;;;;6.17;1.50;;;;;;;;;;4936551;29;20414;-80
2024/01/19 13:45:52;;;;;;;8.27;1.70;;;;;;;;;;4936544;29;20460;-80
2024/01/19 13:48:18;;;;;;;6.40;2.03;;;;;;;;;;4936369;29;20414;-79
2024/01/19 13:50:48;;;;;;;3.87;2.10;;;;;;;;;;4936224;29;20410;-79
2024/01/19 13:53:15;;;;;;;4.37;1.77;;;;;;;;;;4935986;29;20427;-80
2024/01/19 13:55:41;;;;;;;5.83;1.20;;;;;;;;;;4936315;29;20492;-82
2024/01/19 13:58:07;;;;;;;7.40;1.40;;;;;;;;;;4936178;29;20990;-85
2024/01/19 14:00:33;;;;;;;4.73;1.30;;;;;;;;;;4936205;29;20428;-80
2024/01/19 14:02:59;;;;;;;6.33;2.23;;;;;;;;;;4936053;29;20974;-82
2024/01/19 14:05:25;;;;;;;6.37;2.23;;;;;;;;;;4936157;29;20418;-82
2024/01/19 14:07:52;;;;;;;6.80;1.80;;;;;;;;;;4934765;29;20413;-80
2024/01/19 14:10:20;;;;;;;7.90;1.80;;;;;;;;;;4936047;29;20419;-83
2024/01/19 14:12:47;;;;;;;4.37;1.30;;;;;;;;;;4936032;29;20891;-82
2024/01/19 14:15:18;;;;;;;6.17;1.40;;;;;;;;;;4936003;29;20444;-80
2024/01/19 14:17:50;;;;;;;8.37;1.90;;;;;;;;;;4935799;29;20481;-81
2024/01/19 14:20:16;;;;;;;4.97;2.20;;;;;;;;;;4935995;29;20753;-80
2024/01/19 14:22:47;;;;;;;5.33;2.00;;;;;;;;;;4935490;29;20470;-82
2024/01/19 14:25:16;;;;;;;6.10;1.50;;;;;;;;;;4936005;29;20406;-82
2024/01/19 14:27:45;;;;;;;8.13;2.43;;;;;;;;;;4935678;29;20410;-81
2024/01/19 14:30:14;;;;;;;9.03;2.80;;;;;;;;;;4935728;29;20419;-82
2024/01/19 14:32:48;;;;;;;4.10;1.37;;;;;;;;;;4935603;29;20425;-81
2024/01/19 14:35:15;;;;;;;2.90;0.90;;;;;;;;;;4935777;29;20774;-81
2024/01/19 14:37:43;;;;;;;9.13;1.40;;;;;;;;;;4934886;29;20834;-81
2024/01/19 14:40:09;;;;;;;7.23;1.50;;;;;;;;;;4935401;28;20425;-82
2024/01/19 14:42:36;;;;;;;3.43;1.20;;;;;;;;;;4934723;29;20754;-79
2024/01/19 14:45:04;;;;;;;2.47;1.30;;;;;;;;;;4934092;29;20468;-82
2024/01/19 14:47:30;;;;;;;7.20;1.17;;;;;;;;;;4935330;29;20737;-82
2024/01/19 14:49:59;;;;;;;2.33;0.90;;;;;;;;;;4935300;29;20524;-81
2024/01/19 14:52:25;;;;;;;5.30;1.40;;;;;;;;;;4937214;29;20916;-81